Chaumont-Gistoux, Belgium
Current Conditions -  °F | °C
As of 11:25 AM on Monday 22 Dec 2014 (Local Time) from EBBE Reporting Station
Overcast Overcast  
Wind Chill: 40°   Ceiling: 1000
Heat Index: 48°   Visibility: 6mi
Dew Point: 45°   Wind: 25mph
Humidity: 87%   Direction: 220°SW
Pressure: 30.18"   Gusts: NA
Location:  50.68°N, 4.72°E
Report Text: EBBE 221025Z 22022KT 9999 SCT008 BKN010 OVC013 09/07 Q1022 GRN GRN TEMPO YLO
Loading
Personal Weather Stations






























Interactive Weather Map New forecast layout! Learn more

10-Day Weather Forecast

Advertisements
Track Severe Weather on mobile